Time;durP1;ratioP1;P1;durP2;ratioP2;P2;SDS_P1;SDS_P2;PMS_P1;PMS_P2;Temp;Humidity;BMP_temperature;BMP_pressure;BME280_temperature;BME280_humidity;BME280_pressure;Samples;Min_cycle;Max_cycle;Signal;HPM_P1;HPM_P2
2021/12/15 00:01:10;;;;;;;;;;;9.20;99.90;;;7.04;100.00;101999.38;4985023;28;19926;-76
2021/12/15 00:03:38;;;;;;;;;;;8.00;99.90;;;7.01;100.00;101994.97;4983523;28;20046;-76
2021/12/15 00:06:12;;;;;;;;;;;7.90;99.90;;;7.01;100.00;101994.06;4984750;28;19965;-77
2021/12/15 00:08:40;;;;;;;;;;;7.30;99.90;;;7.01;100.00;102001.94;4952162;28;20311;-76
2021/12/15 00:11:08;;;;;;;;;;;8.20;99.90;;;6.99;100.00;102001.91;4984740;28;20297;-76
2021/12/15 00:13:37;;;;;;;;;;;7.30;99.90;;;7.02;100.00;101990.59;4984593;28;20394;-76
2021/12/15 00:16:06;;;;;;;;;;;7.20;99.90;;;6.98;100.00;101994.94;4986563;28;19934;-76
2021/12/15 00:18:33;;;;;;;;;;;7.30;99.90;;;7.00;100.00;101989.69;4964505;28;19953;-75
2021/12/15 00:21:01;;;;;;;;;;;7.20;99.90;;;6.97;100.00;101990.53;4950618;29;19933;-76
2021/12/15 00:23:29;;;;;;;;;;;7.40;99.90;;;7.29;100.00;101982.34;4948133;29;19930;-76
2021/12/15 00:25:56;;;;;;;;;;;7.20;99.90;;;7.24;100.00;101987.50;4950554;29;19926;-76
2021/12/15 00:28:23;;;;;;;;;;;7.20;99.90;;;7.07;100.00;101983.72;4950016;29;19934;-74
2021/12/15 00:30:53;;;;;;;;;;;8.50;99.90;;;7.04;100.00;101981.94;4949423;29;20390;-76
2021/12/15 00:33:20;;;;;;;;;;;8.40;99.90;;;7.02;100.00;101986.25;4947992;29;19937;-76
2021/12/15 00:35:49;;;;;;;;;;;8.50;99.90;;;7.04;100.00;101976.69;4964672;28;19926;-76
2021/12/15 00:38:16;;;;;;;;;;;7.20;99.90;;;7.05;100.00;101982.81;4964650;28;19938;-76
2021/12/15 00:40:43;;;;;;;;;;;7.20;99.90;;;7.05;100.00;101988.91;4940843;28;20298;-76
2021/12/15 00:43:10;;;;;;;;;;;7.20;99.90;;;7.06;100.00;101987.19;4970771;28;19940;-76
2021/12/15 00:45:37;;;;;;;;;;;7.20;99.90;;;7.06;100.00;101988.06;4973040;28;19926;-75
2021/12/15 00:48:04;;;;;;;;;;;7.20;99.90;;;6.99;100.00;101980.97;4955538;28;19976;-76
2021/12/15 00:50:34;;;;;;;;;;;7.30;99.90;;;6.97;100.00;101979.19;4971796;28;20463;-75
2021/12/15 00:53:05;;;;;;;;;;;7.50;99.90;;;7.01;100.00;101987.13;4967959;28;19927;-76
2021/12/15 00:55:33;;;;;;;;;;;7.30;99.90;;;7.01;100.00;101984.50;4972651;28;20417;-75
2021/12/15 00:58:01;;;;;;;;;;;8.40;99.90;;;7.03;100.00;101992.38;4970373;28;19941;-75
2021/12/15 01:00:42;;;;;;;;;;;8.00;99.90;;;7.01;100.00;101983.59;4986887;28;19928;-76
2021/12/15 01:03:10;;;;;;;;;;;7.60;99.90;;;7.01;100.00;101981.00;4967511;28;20016;-74
2021/12/15 01:05:42;;;;;;;;;;;7.20;99.90;;;7.04;100.00;101983.69;4969648;28;20003;-76
2021/12/15 01:08:14;;;;;;;;;;;7.20;99.90;;;7.02;100.00;101991.50;4972518;28;19926;-76
2021/12/15 01:10:58;;;;;;;;;;;7.20;99.90;;;7.03;100.00;101995.00;4971211;28;20578;-76
2021/12/15 01:21:46;;;;;;;;;;;7.20;99.90;;;6.97;100.00;101980.06;4971635;28;19930;-76
2021/12/15 01:24:14;;;;;;;;;;;7.20;99.90;;;7.05;100.00;101981.06;4969601;28;19926;-76
2021/12/15 01:26:41;;;;;;;;;;;7.20;99.90;;;6.98;100.00;101979.22;4971526;28;20001;-76
2021/12/15 01:29:08;;;;;;;;;;;7.60;99.90;;;6.98;100.00;101987.06;4971567;28;19933;-76
2021/12/15 01:31:36;;;;;;;;;;;7.20;99.90;;;6.98;100.00;101992.31;4971452;28;19936;-76
2021/12/15 01:34:03;;;;;;;;;;;7.50;99.90;;;7.00;100.00;101984.47;4969074;28;19938;-75
2021/12/15 01:36:30;;;;;;;;;;;8.90;99.90;;;7.02;100.00;101988.88;4971240;28;19934;-76
2021/12/15 01:38:57;;;;;;;;;;;7.40;99.90;;;6.99;100.00;101996.69;4955147;28;19930;-76
2021/12/15 01:41:25;;;;;;;;;;;7.20;99.90;;;7.22;100.00;102002.31;4971322;28;19980;-77
2021/12/15 01:49:39;;;;;;;;;;;7.20;99.90;;;7.01;100.00;102012.41;4970281;28;19926;-77
2021/12/15 01:52:17;;;;;;;;;;;7.20;99.90;;;6.97;100.00;101998.41;4953944;28;19952;-76
2021/12/15 01:54:50;;;;;;;;;;;7.80;99.90;;;6.94;100.00;102007.06;4972219;28;19926;-76
2021/12/15 01:57:18;;;;;;;;;;;7.20;99.90;;;6.94;100.00;102008.78;4985951;28;19960;-76
2021/12/15 01:59:47;;;;;;;;;;;7.70;99.90;;;6.97;100.00;102011.47;4986580;28;20465;-75
2021/12/15 02:02:16;;;;;;;;;;;7.20;99.90;;;6.95;100.00;102006.22;4973586;28;19949;-76
2021/12/15 02:04:44;;;;;;;;;;;8.80;99.90;;;6.91;100.00;101993.94;4987233;28;20398;-76
2021/12/15 02:07:15;;;;;;;;;;;7.70;99.90;;;6.91;100.00;102008.75;4985487;28;19953;-77
2021/12/15 02:12:25;;;;;;;;;;;8.80;99.90;;;6.93;100.00;102007.03;4966430;28;19931;-76
2021/12/15 02:14:52;;;;;;;;;;;7.50;99.90;;;6.91;100.00;101999.16;4950684;29;19930;-76
2021/12/15 02:17:20;;;;;;;;;;;7.10;99.90;;;6.88;100.00;101999.13;4966854;28;20018;-75
2021/12/15 02:19:48;;;;;;;;;;;7.00;99.90;;;6.91;100.00;102003.50;4966849;28;19933;-75
2021/12/15 02:22:15;;;;;;;;;;;7.10;99.90;;;6.90;100.00;102000.03;4965963;28;19930;-75
2021/12/15 02:24:43;;;;;;;;;;;7.30;99.90;;;6.88;100.00;101993.88;4950271;29;20363;-75
2021/12/15 02:27:13;;;;;;;;;;;7.20;99.90;;;6.90;100.00;101991.28;4950543;29;19934;-74
2021/12/15 02:29:44;;;;;;;;;;;7.60;99.90;;;6.90;100.00;101991.28;4950592;29;19930;-74
2021/12/15 02:32:25;;;;;;;;;;;7.00;99.90;;;6.86;100.00;101990.34;4966315;28;19926;-76
2021/12/15 02:37:37;;;;;;;;;;;7.00;99.90;;;6.84;100.00;101992.03;4950837;29;19993;-76
2021/12/15 02:40:11;;;;;;;;;;;7.00;99.90;;;6.78;100.00;101992.81;4950430;29;19934;-76
2021/12/15 02:42:41;;;;;;;;;;;7.00;99.90;;;6.80;100.00;101990.25;4965575;28;19997;-76
2021/12/15 02:45:11;;;;;;;;;;;7.10;99.90;;;6.75;100.00;101981.44;4950157;29;19934;-76
2021/12/15 02:47:38;;;;;;;;;;;7.00;99.90;;;6.71;100.00;101995.28;4961918;28;19960;-76
2021/12/15 02:50:08;;;;;;;;;;;6.90;99.90;;;6.67;100.00;101997.84;4972962;28;19936;-76
2021/12/15 02:52:38;;;;;;;;;;;6.90;99.90;;;6.62;100.00;101990.78;4968700;28;19937;-75
2021/12/15 02:55:06;;;;;;;;;;;7.20;99.90;;;6.57;100.00;101993.34;4968838;28;19930;-76
2021/12/15 02:57:34;;;;;;;;;;;6.90;99.90;;;6.54;100.00;102001.09;4969393;28;19956;-76
2021/12/15 03:00:17;;;;;;;;;;;6.80;99.90;;;6.43;100.00;101992.19;4969437;28;20407;-76
2021/12/15 03:05:43;;;;;;;;;;;7.20;99.90;;;6.32;100.00;101999.78;4968817;28;19937;-76
2021/12/15 03:08:18;;;;;;;;;;;6.70;99.90;;;6.30;100.00;101999.78;4969454;28;19930;-76
2021/12/15 03:16:23;;;;;;;;;;;6.60;99.90;;;6.19;100.00;101999.56;4969629;28;20376;-75
2021/12/15 03:18:50;;;;;;;;;;;8.20;99.90;;;6.21;100.00;101996.97;4969052;28;19934;-76
2021/12/15 03:21:25;;;;;;;;;;;8.10;99.90;;;6.19;100.00;101994.34;4968270;28;19933;-76
2021/12/15 03:24:07;;;;;;;;;;;6.40;99.90;;;6.13;100.00;101996.81;4967585;28;19930;-75
2021/12/15 03:26:43;;;;;;;;;;;6.50;99.90;;;6.13;100.00;102002.03;4968948;28;19926;-76
2021/12/15 03:35:17;;;;;;;;;;;6.40;99.90;;;5.97;100.00;101996.47;4984548;28;19937;-76
2021/12/15 03:37:55;;;;;;;;;;;6.70;99.90;;;5.93;100.00;101996.34;4970176;28;20407;-76
2021/12/15 03:40:39;;;;;;;;;;;7.80;99.90;;;5.89;100.00;101991.91;4968921;28;20575;-76
2021/12/15 03:43:14;;;;;;;;;;;7.20;99.90;;;5.87;100.00;102001.47;4968597;28;19929;-77
2021/12/15 03:45:46;;;;;;;;;;;6.20;99.90;;;5.84;100.00;101997.03;4969387;28;19941;-75
2021/12/15 03:48:17;;;;;;;;;;;6.80;99.90;;;5.84;100.00;101994.44;4969334;28;19937;-75
2021/12/15 03:50:45;;;;;;;;;;;6.20;99.90;;;5.82;100.00;101999.63;4973446;28;20406;-76
2021/12/15 03:53:13;;;;;;;;;;;6.70;99.90;;;5.74;100.00;101995.09;4968911;28;19930;-76
2021/12/15 03:55:41;;;;;;;;;;;6.00;99.90;;;5.72;100.00;102007.25;4968496;28;19934;-76
2021/12/15 03:58:13;;;;;;;;;;;6.00;99.90;;;5.70;100.00;102003.69;4968804;28;20338;-76
2021/12/15 04:00:47;;;;;;;;;;;6.00;99.90;;;5.74;100.00;102010.75;4968679;28;19925;-75
2021/12/15 04:03:25;;;;;;;;;;;7.10;99.90;;;5.79;100.00;102017.88;4967561;28;19937;-76
2021/12/15 04:05:54;;;;;;;;;;;7.10;99.90;;;5.85;100.00;102008.38;4967178;28;19926;-76
2021/12/15 04:08:21;;;;;;;;;;;6.10;99.90;;;5.85;100.00;102011.88;4969001;28;19930;-76
2021/12/15 04:10:51;;;;;;;;;;;6.10;99.90;;;5.80;100.00;102014.41;4969272;28;19930;-76
2021/12/15 04:13:19;;;;;;;;;;;6.10;99.90;;;5.82;100.00;102017.94;4967621;28;19926;-76
2021/12/15 04:15:53;;;;;;;;;;;6.00;99.90;;;5.82;100.00;102015.31;4968866;28;19993;-76
2021/12/15 04:18:21;;;;;;;;;;;6.10;99.90;;;5.84;100.00;102019.69;4972662;28;19958;-76
2021/12/15 04:20:52;;;;;;;;;;;6.10;99.90;;;5.80;100.00;102016.13;4988495;28;19933;-75
2021/12/15 04:23:20;;;;;;;;;;;6.40;99.90;;;5.80;100.00;102017.00;4971310;28;19933;-75
2021/12/15 04:25:51;;;;;;;;;;;6.10;99.90;;;5.82;100.00;102019.63;4972611;28;19926;-76
2021/12/15 04:28:21;;;;;;;;;;;6.10;99.90;;;5.81;100.00;102025.72;4972997;28;19934;-76
2021/12/15 04:30:56;;;;;;;;;;;7.10;99.90;;;5.80;100.00;102023.94;4972237;28;19992;-76
2021/12/15 04:33:29;;;;;;;;;;;6.60;99.90;;;5.82;100.00;102025.75;4971165;28;19926;-76
2021/12/15 04:35:57;;;;;;;;;;;6.40;99.90;;;5.82;100.00;102022.25;4988529;28;20391;-76
2021/12/15 04:38:25;;;;;;;;;;;6.00;99.90;;;5.81;100.00;102030.94;4972224;28;19933;-76
2021/12/15 04:40:53;;;;;;;;;;;8.00;99.90;;;5.85;100.00;102024.06;4973323;28;20339;-75
2021/12/15 04:43:21;;;;;;;;;;;6.10;99.90;;;5.79;100.00;102028.31;4963337;28;19935;-76
2021/12/15 04:45:48;;;;;;;;;;;6.10;99.90;;;5.81;100.00;102026.63;4954290;29;19938;-77
2021/12/15 04:48:15;;;;;;;;;;;7.50;99.90;;;5.81;100.00;102036.16;4968580;28;19934;-75
2021/12/15 04:50:42;;;;;;;;;;;6.10;99.90;;;5.78;100.00;102030.88;4952803;29;19931;-79
2021/12/15 04:53:10;;;;;;;;;;;8.10;99.90;;;5.81;100.00;102028.31;4951506;29;20029;-76
2021/12/15 04:55:38;;;;;;;;;;;7.00;99.90;;;5.79;100.00;102019.56;4968260;28;19931;-75
2021/12/15 04:58:07;;;;;;;;;;;6.00;99.90;;;5.77;100.00;102026.50;4952302;28;19931;-75
2021/12/15 05:00:45;;;;;;;;;;;6.00;99.90;;;5.81;100.00;102030.94;4967323;28;19930;-76
2021/12/15 05:03:12;;;;;;;;;;;7.70;99.90;;;5.79;100.00;102025.69;4965958;28;19965;-76
2021/12/15 05:05:39;;;;;;;;;;;6.10;99.90;;;5.79;100.00;102036.16;4968539;28;19926;-75
2021/12/15 05:08:07;;;;;;;;;;;6.00;99.90;;;5.77;100.00;102043.03;4968270;28;19930;-75
2021/12/15 05:10:35;;;;;;;;;;;6.10;99.90;;;5.85;100.00;102037.97;4968209;28;19933;-75
2021/12/15 05:13:03;;;;;;;;;;;7.60;99.90;;;5.85;100.00;102032.75;4967913;28;19931;-76
2021/12/15 05:15:30;;;;;;;;;;;6.60;99.90;;;5.88;100.00;102029.34;4969069;28;19930;-75
2021/12/15 05:17:57;;;;;;;;;;;6.10;99.90;;;5.84;100.00;102035.34;4968372;28;19931;-75
2021/12/15 05:20:25;;;;;;;;;;;8.20;99.90;;;5.82;100.00;102038.81;4968802;28;19930;-75
2021/12/15 05:22:53;;;;;;;;;;;6.10;99.90;;;5.84;100.00;102041.44;4953098;29;19937;-76
2021/12/15 05:25:21;;;;;;;;;;;7.70;99.90;;;5.80;100.00;102035.28;4968662;28;19931;-76
2021/12/15 05:27:50;;;;;;;;;;;6.10;99.90;;;5.83;100.00;102042.31;4967979;28;19930;-77
2021/12/15 05:30:19;;;;;;;;;;;6.10;99.90;;;5.89;100.00;102044.16;4968162;28;19930;-75
2021/12/15 05:32:47;;;;;;;;;;;8.30;99.90;;;5.88;100.00;102045.91;4978605;28;19937;-76
2021/12/15 05:35:20;;;;;;;;;;;6.10;99.90;;;5.90;100.00;102045.94;4963338;28;19926;-75
2021/12/15 05:37:54;;;;;;;;;;;6.10;99.90;;;5.91;100.00;102047.69;4971973;28;19957;-74
2021/12/15 05:40:22;;;;;;;;;;;6.20;99.90;;;5.88;100.00;102048.53;4972289;28;19937;-75
2021/12/15 05:42:49;;;;;;;;;;;6.20;99.90;;;5.89;100.00;102047.69;4960708;28;19937;-73
2021/12/15 05:45:16;;;;;;;;;;;5.70;99.90;;;5.93;100.00;102053.84;4986080;28;19937;-75
2021/12/15 05:47:45;;;;;;;;;;;6.20;99.90;;;5.91;100.00;102059.03;4972115;28;19930;-74
2021/12/15 05:50:13;;;;;;;;;;;6.50;99.90;;;5.93;100.00;102059.06;4971963;28;19934;-74
2021/12/15 05:52:40;;;;;;;;;;;6.20;99.90;;;5.91;100.00;102058.16;4970321;28;20542;-74
2021/12/15 05:55:10;;;;;;;;;;;7.30;99.90;;;5.96;100.00;102059.16;4971213;28;19931;-75
2021/12/15 05:57:37;;;;;;;;;;;6.20;99.90;;;5.94;100.00;102061.72;4972276;28;20028;-73
2021/12/15 06:00:14;;;;;;;;;;;6.30;99.90;;;5.97;100.00;102059.16;4969274;28;19930;-74
2021/12/15 06:02:44;;;;;;;;;;;6.20;99.90;;;5.99;100.00;102058.31;4972827;28;19926;-75
2021/12/15 06:05:11;;;;;;;;;;;7.80;99.90;;;6.01;100.00;102062.78;4986813;28;19944;-75
2021/12/15 06:07:39;;;;;;;;;;;7.90;99.90;;;6.01;100.00;102064.47;4969652;28;20020;-76
2021/12/15 06:10:10;;;;;;;;;;;6.30;99.90;;;5.96;100.00;102072.22;4953871;28;19933;-75
2021/12/15 06:12:37;;;;;;;;;;;6.30;99.90;;;5.99;100.00;102081.84;4986831;28;19930;-77
2021/12/15 06:15:05;;;;;;;;;;;6.20;99.90;;;6.02;100.00;102079.34;4971323;28;19933;-76
2021/12/15 06:17:32;;;;;;;;;;;6.30;99.90;;;6.03;100.00;102075.88;4970985;28;19926;-75
2021/12/15 06:19:59;;;;;;;;;;;7.30;99.90;;;6.02;100.00;102085.44;4970796;28;19926;-76
2021/12/15 06:22:29;;;;;;;;;;;6.50;99.90;;;6.06;100.00;102084.66;4970749;28;19953;-76
2021/12/15 06:24:56;;;;;;;;;;;7.40;99.90;;;6.11;100.00;102074.31;4986894;28;19937;-75
2021/12/15 06:27:24;;;;;;;;;;;6.40;99.90;;;6.07;100.00;102070.75;4970970;28;19932;-75
2021/12/15 06:29:53;;;;;;;;;;;6.30;99.90;;;6.08;100.00;102077.72;4970908;28;19937;-75
2021/12/15 06:32:21;;;;;;;;;;;6.30;99.90;;;6.09;100.00;102076.00;4970481;28;20479;-75
2021/12/15 06:34:48;;;;;;;;;;;6.00;99.90;;;6.35;100.00;102080.94;4944730;29;20620;-75
2021/12/15 06:37:16;;;;;;;;;;;7.80;99.90;;;6.31;100.00;102079.06;4967212;28;19937;-75
2021/12/15 06:39:43;;;;;;;;;;;6.30;99.90;;;6.19;100.00;102077.97;4966271;28;20022;-77
2021/12/15 06:42:09;;;;;;;;;;;6.40;99.90;;;6.21;100.00;102088.47;4967418;28;19943;-75
2021/12/15 06:44:38;;;;;;;;;;;6.40;99.90;;;6.16;100.00;102090.97;4967483;28;19937;-77
2021/12/15 07:00:44;;;;;;;;;;;7.50;99.90;;;6.22;100.00;102106.81;4985746;28;19933;-76
2021/12/15 07:03:12;;;;;;;;;;;6.50;99.90;;;6.20;100.00;102105.88;4984592;28;20392;-76
2021/12/15 07:05:39;;;;;;;;;;;8.50;99.90;;;6.22;100.00;102116.34;4986353;28;19926;-75
2021/12/15 07:08:07;;;;;;;;;;;6.50;99.90;;;6.21;100.00;102109.38;4985996;28;19934;-76
2021/12/15 07:10:38;;;;;;;;;;;7.80;99.90;;;6.22;100.00;102121.59;4953835;28;19926;-76
2021/12/15 07:13:06;;;;;;;;;;;6.50;99.90;;;6.26;100.00;102120.81;4953759;28;20032;-75
2021/12/15 07:15:34;;;;;;;;;;;6.50;99.90;;;6.26;100.00;102126.06;4986000;28;19930;-76
2021/12/15 07:18:04;;;;;;;;;;;6.50;99.90;;;6.27;100.00;102126.91;4969918;28;20169;-76
2021/12/15 07:23:01;;;;;;;;;;;6.60;99.90;;;6.27;100.00;102116.47;4985966;28;19926;-75
2021/12/15 07:25:29;;;;;;;;;;;6.60;99.90;;;6.33;100.00;102114.00;4993062;28;19930;-77
2021/12/15 07:27:57;;;;;;;;;;;8.20;99.90;;;6.36;100.00;102129.75;4990422;28;19992;-75
2021/12/15 07:30:24;;;;;;;;;;;7.90;99.90;;;6.39;100.00;102130.69;4986503;28;19957;-75
2021/12/15 07:32:52;;;;;;;;;;;7.00;99.90;;;6.38;100.00;102130.66;4994547;28;19961;-76
2021/12/15 07:35:20;;;;;;;;;;;6.60;99.90;;;6.35;100.00;102141.94;4996963;28;20438;-76
2021/12/15 07:37:47;;;;;;;;;;;6.60;99.90;;;6.41;100.00;102145.53;4986040;28;20311;-76
2021/12/15 07:40:21;;;;;;;;;;;6.60;99.90;;;6.42;100.00;102140.34;4985653;28;20024;-75
2021/12/15 07:42:56;;;;;;;;;;;6.90;99.90;;;6.39;100.00;102155.97;4985305;28;20057;-75
2021/12/15 07:45:26;;;;;;;;;;;8.10;99.90;;;6.42;100.00;102158.63;4985361;28;19933;-76
2021/12/15 07:47:54;;;;;;;;;;;7.70;99.90;;;6.44;100.00;102158.69;4969244;28;19926;-75
2021/12/15 07:50:24;;;;;;;;;;;7.60;99.90;;;6.39;100.00;102171.66;4985386;28;20195;-76
2021/12/15 07:52:52;;;;;;;;;;;6.70;99.90;;;6.40;100.00;102168.19;4985141;28;20025;-76
2021/12/15 07:55:19;;;;;;;;;;;6.80;99.90;;;6.43;100.00;102170.84;4970741;28;19926;-76
2021/12/15 07:57:46;;;;;;;;;;;6.80;99.90;;;6.50;100.00;102182.34;4985284;28;20108;-75
2021/12/15 08:00:14;;;;;;;;;;;8.70;99.90;;;6.49;100.00;102184.09;4985647;28;19933;-76
2021/12/15 08:02:44;;;;;;;;;;;6.70;99.90;;;6.53;100.00;102187.63;4985018;28;20044;-76
2021/12/15 08:05:11;;;;;;;;;;;8.00;99.90;;;6.56;100.00;102190.34;4962557;28;20553;-75
2021/12/15 08:07:38;;;;;;;;;;;6.90;99.90;;;6.56;100.00;102189.44;4985025;28;19933;-75
2021/12/15 08:10:09;;;;;;;;;;;6.70;99.90;;;6.55;100.00;102185.06;4966714;28;20322;-76
2021/12/15 08:12:37;;;;;;;;;;;6.80;99.90;;;6.61;100.00;102182.56;4969089;28;19926;-75
2021/12/15 08:15:07;;;;;;;;;;;6.80;99.90;;;6.63;100.00;102191.31;4969252;28;20016;-76
2021/12/15 08:17:36;;;;;;;;;;;6.80;99.90;;;6.63;100.00;102193.94;4968712;28;19953;-76
2021/12/15 08:20:06;;;;;;;;;;;6.90;99.90;;;6.72;100.00;102195.91;4965414;28;19961;-76
2021/12/15 08:22:33;;;;;;;;;;;6.90;99.90;;;6.72;100.00;102198.53;4949886;29;19927;-75
2021/12/15 08:25:00;;;;;;;;;;;7.40;99.90;;;6.72;100.00;102196.78;4949797;29;20010;-76
2021/12/15 08:27:27;;;;;;;;;;;7.50;99.90;;;6.77;100.00;102202.09;4949944;29;19926;-75
2021/12/15 08:29:54;;;;;;;;;;;7.70;99.90;;;6.81;100.00;102199.59;4965618;28;20425;-75
2021/12/15 08:32:21;;;;;;;;;;;8.70;99.90;;;6.86;100.00;102202.28;4965587;28;20054;-76
2021/12/15 08:34:48;;;;;;;;;;;7.00;99.90;;;6.93;100.00;102200.69;4949583;29;20452;-75
2021/12/15 08:37:15;;;;;;;;;;;7.40;99.90;;;6.93;100.00;102213.75;4971825;28;19989;-75
2021/12/15 08:39:45;;;;;;;;;;;7.40;99.90;;;6.93;100.00;102209.44;4984631;28;20295;-75
2021/12/15 08:42:12;;;;;;;;;;;7.10;99.90;;;6.95;100.00;102199.00;4966813;28;19941;-74
2021/12/15 08:44:39;;;;;;;;;;;7.10;99.90;;;7.00;100.00;102193.84;4968603;28;19927;-76
2021/12/15 08:47:07;;;;;;;;;;;8.80;99.90;;;7.03;100.00;102204.41;4970104;28;19937;-75
2021/12/15 08:49:35;;;;;;;;;;;7.20;99.90;;;7.03;100.00;102197.41;4968875;28;20379;-76
2021/12/15 08:52:04;;;;;;;;;;;7.20;99.90;;;7.05;100.00;102200.06;4968948;28;19930;-75
2021/12/15 08:54:31;;;;;;;;;;;7.20;99.90;;;7.08;100.00;102202.75;4968711;28;19936;-76
2021/12/15 08:56:58;;;;;;;;;;;9.10;99.90;;;7.09;100.00;102199.28;4953084;28;20466;-76
2021/12/15 08:59:25;;;;;;;;;;;7.30;99.90;;;7.13;100.00;102193.22;4968293;28;20403;-76
2021/12/15 09:01:53;;;;;;;;;;;7.30;99.90;;;7.21;100.00;102203.84;4968851;28;20385;-75
2021/12/15 09:04:21;;;;;;;;;;;7.30;99.90;;;7.22;100.00;102203.91;4972018;28;20026;-76
2021/12/15 09:06:48;;;;;;;;;;;7.40;99.90;;;7.27;100.00;102205.72;4971921;28;20596;-75
2021/12/15 09:09:16;;;;;;;;;;;8.10;99.90;;;7.26;100.00;102203.94;4988116;28;20310;-75
2021/12/15 09:11:44;;;;;;;;;;;7.40;99.90;;;7.31;100.00;102216.28;4974377;28;19981;-76
2021/12/15 09:14:11;;;;;;;;;;;7.50;99.90;;;7.33;100.00;102219.81;4981258;28;19930;-76
2021/12/15 09:16:40;;;;;;;;;;;7.50;99.90;;;7.40;100.00;102217.28;4972051;28;20415;-75
2021/12/15 09:19:07;;;;;;;;;;;9.20;99.90;;;7.46;100.00;102220.91;4972058;28;19936;-76
2021/12/15 09:21:35;;;;;;;;;;;7.60;99.90;;;7.46;100.00;102220.03;4971941;28;19930;-76
2021/12/15 09:24:06;;;;;;;;;;;7.60;99.90;;;7.49;100.00;102212.25;4971243;28;19961;-76
2021/12/15 09:26:34;;;;;;;;;;;7.60;99.90;;;7.51;100.00;102211.44;4971833;28;20039;-75
2021/12/15 09:29:01;;;;;;;;;;;7.60;99.90;;;7.59;100.00;102213.28;4971791;28;20578;-75
2021/12/15 09:31:28;;;;;;;;;;;7.70;99.90;;;7.64;100.00;102224.72;4971586;28;19962;-73
2021/12/15 09:33:57;;;;;;;;;;;8.60;99.90;;;7.70;100.00;102223.94;4971251;28;20399;-74
2021/12/15 09:36:25;;;;;;;;;;;7.80;99.90;;;7.78;100.00;102222.38;4972804;28;20355;-73
2021/12/15 09:38:57;;;;;;;;;;;7.80;99.90;;;7.85;100.00;102221.59;4972675;28;19956;-75
2021/12/15 09:41:25;;;;;;;;;;;7.90;99.90;;;8.14;100.00;102221.19;4972266;28;19930;-74
2021/12/15 09:43:55;;;;;;;;;;;7.90;99.90;;;8.22;100.00;102226.56;4971083;28;19934;-73
2021/12/15 09:46:37;;;;;;;;;;;8.00;99.90;;;8.28;100.00;102215.28;4972689;28;19940;-75
2021/12/15 10:03:08;;;;;;;;;;;9.20;99.90;;;8.21;100.00;102216.94;4967468;28;20024;-74
2021/12/15 10:05:48;;;;;;;;;;;8.30;99.90;;;8.22;100.00;102213.47;4951376;29;19934;-74
2021/12/15 10:19:26;;;;;;;;;;;8.50;99.90;;;8.66;100.00;102204.47;4952677;29;19938;-76
2021/12/15 10:22:00;;;;;;;;;;;8.60;99.90;;;8.51;100.00;102205.16;4952978;29;19926;-75
2021/12/15 10:24:43;;;;;;;;;;;8.60;99.90;;;8.54;100.00;102204.34;4951007;29;19933;-75
2021/12/15 10:27:10;;;;;;;;;;;8.60;99.90;;;8.61;100.00;102203.56;4951354;29;19930;-75
2021/12/15 10:29:56;;;;;;;;;;;9.10;99.90;;;8.67;100.00;102193.16;4951094;29;19931;-77
2021/12/15 10:32:28;;;;;;;;;;;8.70;99.90;;;8.55;100.00;102193.84;4950859;29;19926;-76
2021/12/15 10:35:00;;;;;;;;;;;8.80;99.90;;;8.65;100.00;102192.22;4951101;29;20543;-77
2021/12/15 10:37:28;;;;;;;;;;;8.80;99.90;;;8.69;100.00;102199.31;4950910;29;19970;-75
2021/12/15 10:40:27;;;;;;;;;;;9.10;99.90;;;8.73;100.00;102197.56;4950763;29;19973;-76
2021/12/15 10:43:04;;;;;;;;;;;8.80;99.90;;;8.80;100.00;102192.44;4909322;29;20376;-75
2021/12/15 10:45:40;;;;;;;;;;;10.20;99.90;;;8.80;100.00;102197.69;4950954;29;20024;-75
2021/12/15 10:48:14;;;;;;;;;;;8.90;99.90;;;8.79;100.00;102187.19;4950655;29;19974;-76
2021/12/15 10:50:42;;;;;;;;;;;10.60;99.90;;;8.82;100.00;102187.22;4950659;29;20455;-75
2021/12/15 10:53:09;;;;;;;;;;;8.90;99.90;;;8.80;100.00;102181.94;4934527;29;20037;-76
2021/12/15 10:55:37;;;;;;;;;;;9.20;99.90;;;8.89;100.00;102183.78;4950674;29;20307;-76
2021/12/15 10:58:32;;;;;;;;;;;9.20;99.90;;;8.98;100.00;102190.91;4951523;29;19926;-75
2021/12/15 11:01:00;;;;;;;;;;;9.00;99.90;;;9.01;100.00;102174.28;4955757;29;19978;-76
2021/12/15 11:03:37;;;;;;;;;;;9.00;99.90;;;9.03;100.00;102173.47;4950100;29;20051;-75
2021/12/15 11:06:27;;;;;;;;;;;9.10;99.90;;;9.05;100.00;102176.97;4952267;28;19926;-76
2021/12/15 11:09:22;;;;;;;;;;;9.40;99.90;;;9.14;100.00;102178.81;4950571;29;19937;-77
2021/12/15 11:12:12;;;;;;;;;;;9.20;99.90;;;9.20;100.00;102170.13;4951878;29;19937;-76
2021/12/15 11:14:43;;;;;;;;;;;9.20;99.90;;;9.24;100.00;102174.56;4951275;29;19930;-75
2021/12/15 11:17:14;;;;;;;;;;;9.30;99.90;;;9.30;100.00;102165.84;4950220;29;19930;-76
2021/12/15 11:19:45;;;;;;;;;;;9.30;99.90;;;9.36;100.00;102165.91;4951161;29;19930;-75
2021/12/15 11:22:40;;;;;;;;;;;10.00;99.90;;;9.40;100.00;102158.94;4949946;29;19934;-77
2021/12/15 11:25:18;;;;;;;;;;;9.40;99.90;;;9.50;100.00;102163.44;4949875;28;19997;-77
2021/12/15 11:27:57;;;;;;;;;;;9.50;99.90;;;9.75;100.00;102167.16;4950104;29;19926;-76
2021/12/15 11:30:48;;;;;;;;;;;9.50;99.90;;;9.85;100.00;102160.22;4951073;29;19973;-75
2021/12/15 11:33:20;;;;;;;;;;;10.20;99.90;;;9.70;100.00;102160.09;4950009;29;20359;-76
2021/12/15 11:35:57;;;;;;;;;;;9.70;99.90;;;9.65;100.00;102155.69;4950130;29;19930;-75
2021/12/15 11:38:49;;;;;;;;;;;9.70;99.90;;;9.72;100.00;102146.09;4950405;29;20347;-75
2021/12/15 11:41:19;;;;;;;;;;;8.30;99.90;;;9.78;100.00;102148.78;4949959;29;20049;-75
2021/12/15 11:43:48;;;;;;;;;;;9.80;99.90;;;9.78;100.00;102153.16;4965790;28;20391;-76
2021/12/15 11:46:22;;;;;;;;;;;9.80;99.90;;;9.68;100.00;102151.31;4949929;29;19937;-76
2021/12/15 11:49:00;;;;;;;;;;;9.80;99.90;;;9.72;100.00;102147.84;4949718;29;20323;-75
2021/12/15 11:51:28;;;;;;;;;;;9.80;99.90;;;9.74;100.00;102146.09;4951062;29;19969;-76
2021/12/15 11:53:55;;;;;;;;;;;9.90;99.90;;;9.77;100.00;102140.91;4950744;29;20024;-76
2021/12/15 11:56:27;;;;;;;;;;;9.90;99.90;;;9.95;100.00;102142.75;4965870;28;19937;-77
2021/12/15 11:59:17;;;;;;;;;;;10.00;99.90;;;9.88;100.00;102136.56;4949511;29;19926;-76
2021/12/15 12:01:47;;;;;;;;;;;10.50;99.90;;;9.89;100.00;102138.31;4950863;29;19998;-77
2021/12/15 12:04:18;;;;;;;;;;;10.00;99.90;;;10.02;100.00;102127.91;4950765;29;19934;-76
2021/12/15 12:06:47;;;;;;;;;;;10.10;99.90;;;10.03;100.00;102125.28;4949751;29;19931;-76
2021/12/15 12:09:16;;;;;;;;;;;10.10;99.90;;;10.00;100.00;102121.75;4977252;28;19926;-77
2021/12/15 12:11:48;;;;;;;;;;;11.00;99.90;;;10.01;100.00;102115.63;4969309;28;19926;-76
2021/12/15 12:14:26;;;;;;;;;;;10.10;99.90;;;10.05;100.00;102122.66;4970095;28;19926;-76
2021/12/15 12:16:53;;;;;;;;;;;10.10;99.90;;;10.14;100.00;102117.47;4970285;28;20705;-75
2021/12/15 12:19:20;;;;;;;;;;;10.20;99.90;;;10.18;100.00;102116.59;4971153;28;19930;-76
2021/12/15 12:21:47;;;;;;;;;;;11.10;99.90;;;10.11;100.00;102117.44;4970243;28;19930;-75
2021/12/15 12:24:17;;;;;;;;;;;10.20;99.90;;;10.12;100.00;102110.44;4968825;28;19926;-77
2021/12/15 12:26:45;;;;;;;;;;;10.30;99.90;;;10.05;100.00;102106.88;4969244;28;19948;-77
2021/12/15 12:29:12;;;;;;;;;;;10.20;99.90;;;10.03;100.00;102114.78;4984834;28;19944;-78
2021/12/15 12:31:39;;;;;;;;;;;10.20;99.90;;;9.98;100.00;102119.09;4984649;28;20032;-75
2021/12/15 12:34:06;;;;;;;;;;;10.20;99.90;;;9.92;100.00;102117.34;4970077;28;19965;-78
2021/12/15 12:36:34;;;;;;;;;;;10.50;99.90;;;9.88;100.00;102115.53;4968681;28;19936;-75
2021/12/15 12:39:08;;;;;;;;;;;10.10;99.90;;;9.88;100.00;102115.53;4971528;28;20192;-77
2021/12/15 12:41:48;;;;;;;;;;;10.00;99.90;;;9.82;100.00;102112.88;4972353;28;19953;-77
2021/12/15 12:44:21;;;;;;;;;;;10.00;99.90;;;9.84;100.00;102111.13;4972281;28;19930;-76
2021/12/15 12:47:06;;;;;;;;;;;10.00;99.90;;;9.82;100.00;102109.34;4973787;28;20318;-75